Terminal Aerodrome Forecast
Issued by NWS

Home | Current Version | Previous Version | Text Only | Print | Product List | Glossary On
Versions: 1 2 3 4 5 6 7 8 9 10 11 12 13 14 15 16 17 18 19 20 21 22
000
FTUS46 KSEW 201400 AAA
TAFSEA
TAF AMD
KSEA 201401Z 2014/2118 11009KT P6SM -RA OVC040
     FM201600 15012G22KT P6SM -RA SCT020 OVC035
      TEMPO 2016/2020 4SM -RA BR BKN020 OVC035
     FM202200 20015G25KT P6SM -RA BKN020 OVC040
     FM211100 22012G20KT P6SM -SHRA BKN020 BKN040=

USA.gov is the U.S. government's official web portal to all federal, state and local government web resources and services.